Time;durP1;ratioP1;P1;durP2;ratioP2;P2;SDS_P1;SDS_P2;PMS_P1;PMS_P2;Temp;Humidity;BMP_temperature;BMP_pressure;BME280_temperature;BME280_humidity;BME280_pressure;Samples;Min_cycle;Max_cycle;Signal;HPM_P1;HPM_P2
2022/01/10 00:00:31;;;;;;;22.30;10.20;;;1.30;99.90;;;;;;5027100;28;20057;-62
2022/01/10 00:02:58;;;;;;;18.60;9.65;;;1.40;99.90;;;;;;5027424;28;20036;-62
2022/01/10 00:05:25;;;;;;;20.55;10.07;;;1.40;99.90;;;;;;5027327;28;20030;-62
2022/01/10 00:07:50;;;;;;;28.55;15.30;;;1.40;99.90;;;;;;5027731;28;20037;-62
2022/01/10 00:10:17;;;;;;;22.95;11.57;;;1.40;99.90;;;;;;5027665;28;20391;-62
2022/01/10 00:12:43;;;;;;;22.00;13.18;;;1.50;99.90;;;;;;5041230;28;20102;-62
2022/01/10 00:15:10;;;;;;;18.30;11.88;;;1.50;99.90;;;;;;5026387;28;20484;-62
2022/01/10 00:17:38;;;;;;;18.90;12.30;;;1.50;99.90;;;;;;5024688;28;20057;-62
2022/01/10 00:20:09;;;;;;;21.80;11.48;;;1.50;99.90;;;;;;5021433;28;20359;-62
2022/01/10 00:22:36;;;;;;;19.83;11.45;;;1.50;99.90;;;;;;5017699;28;20080;-62
2022/01/10 00:25:16;;;;;;;28.88;14.50;;;1.60;99.90;;;;;;5025266;28;20033;-62
2022/01/10 00:27:42;;;;;;;16.55;10.85;;;1.60;99.90;;;;;;5025322;28;20026;-62
2022/01/10 00:30:15;;;;;;;15.63;11.32;;;1.60;99.90;;;;;;5025587;28;20384;-62
2022/01/10 00:32:43;;;;;;;12.70;9.30;;;1.60;99.90;;;;;;5026110;28;20022;-62
2022/01/10 00:35:10;;;;;;;22.20;10.73;;;1.60;99.90;;;;;;5025590;28;20044;-62
2022/01/10 00:37:35;;;;;;;15.18;10.52;;;1.50;99.90;;;;;;5026825;28;20079;-62
2022/01/10 00:42:56;;;;;;;16.80;11.18;;;1.50;99.90;;;;;;5407171;23;19925;-94
2022/01/10 00:45:49;;;;;;;18.95;12.38;;;1.50;99.90;;;;;;5011398;28;20030;-95
2022/01/10 00:48:21;;;;;;;23.98;13.15;;;1.40;99.90;;;;;;5047782;28;20094;-95
2022/01/10 00:50:53;;;;;;;20.77;12.05;;;1.30;99.90;;;;;;5031485;28;20026;-94
2022/01/10 00:53:43;;;;;;;15.50;10.45;;;1.30;99.90;;;;;;5028329;28;20115;-94
2022/01/10 00:56:12;;;;;;;20.45;10.50;;;1.20;99.90;;;;;;5035310;28;20116;-94
2022/01/10 00:58:46;;;;;;;23.65;9.02;;;1.20;99.90;;;;;;5041122;28;20045;-94
2022/01/10 01:01:25;;;;;;;17.40;9.50;;;1.10;99.90;;;;;;5036832;28;20033;-95
2022/01/10 01:03:51;;;;;;;22.48;9.27;;;1.00;99.90;;;;;;5041303;28;20089;-95
2022/01/10 01:06:17;;;;;;;18.95;9.27;;;1.00;99.90;;;;;;5048015;28;20433;-94
2022/01/10 01:08:46;;;;;;;19.70;9.63;;;1.00;99.90;;;;;;5032022;28;20086;-93
2022/01/10 01:14:00;;;;;;;25.95;8.93;;;0.80;99.90;;;;;;5046912;28;20069;-94
2022/01/10 01:17:10;;;;;;;25.38;10.35;;;0.80;99.90;;;;;;5047755;28;20053;-94
2022/01/10 01:26:46;;;;;;;22.77;10.30;;;0.50;99.90;;;;;;5041583;28;20041;-95
2022/01/10 01:29:43;;;;;;;15.27;9.75;;;0.50;99.90;;;;;;5045518;28;20021;-94
2022/01/10 01:32:09;;;;;;;23.55;11.43;;;0.50;99.90;;;;;;5052340;23;20040;-62
2022/01/10 01:34:35;;;;;;;27.48;12.60;;;0.40;99.90;;;;;;5046158;28;20810;-62
2022/01/10 01:37:01;;;;;;;34.45;12.85;;;0.40;99.90;;;;;;5046102;28;20037;-62
2022/01/10 01:39:30;;;;;;;35.55;14.85;;;0.40;99.90;;;;;;5046451;28;20807;-62
2022/01/10 01:42:33;;;;;;;31.88;15.15;;;0.50;99.90;;;;;;5046675;28;20052;-62
2022/01/10 01:45:00;;;;;;;33.55;15.23;;;0.60;99.90;;;;;;5045691;28;20865;-61
2022/01/10 01:47:26;;;;;;;35.95;15.27;;;0.60;99.90;;;;;;5046399;28;20033;-62
2022/01/10 01:49:51;;;;;;;33.65;15.07;;;0.70;99.90;;;;;;5045639;28;20078;-62
2022/01/10 01:52:17;;;;;;;68.45;16.50;;;0.70;99.90;;;;;;5045945;28;20029;-62
2022/01/10 01:55:38;;;;;;;67.93;16.40;;;0.80;99.90;;;;;;5043443;28;20631;-62
2022/01/10 01:58:04;;;;;;;35.45;13.25;;;0.80;99.90;;;;;;5045828;28;20033;-62
2022/01/10 02:00:30;;;;;;;31.05;14.18;;;0.80;99.90;;;;;;5046010;28;20115;-62
2022/01/10 02:02:56;;;;;;;37.05;13.80;;;0.90;99.90;;;;;;5045867;28;20029;-61
2022/01/10 02:05:22;;;;;;;26.73;12.60;;;0.80;99.90;;;;;;5045919;28;20037;-61
2022/01/10 02:07:48;;;;;;;26.08;12.05;;;0.80;99.90;;;;;;5046175;28;20033;-62
2022/01/10 02:10:13;;;;;;;24.02;13.15;;;0.80;99.90;;;;;;5045771;28;20032;-62
2022/01/10 02:12:39;;;;;;;26.17;14.13;;;0.80;99.90;;;;;;5045719;28;20017;-62
2022/01/10 02:15:05;;;;;;;27.13;14.10;;;0.80;99.90;;;;;;5047349;28;20025;-62
2022/01/10 02:17:37;;;;;;;27.83;12.88;;;0.90;99.90;;;;;;5047240;28;20534;-61
2022/01/10 02:20:07;;;;;;;26.92;13.77;;;0.90;99.90;;;;;;5045929;28;20090;-62
2022/01/10 02:22:33;;;;;;;32.67;14.68;;;1.00;99.90;;;;;;5047023;28;20476;-62
2022/01/10 02:24:59;;;;;;;22.63;11.15;;;1.00;99.90;;;;;;5045523;28;20151;-62
2022/01/10 02:27:28;;;;;;;14.30;8.98;;;1.00;99.90;;;;;;5046239;28;20074;-62
2022/01/10 02:29:53;;;;;;;28.95;10.05;;;1.10;99.90;;;;;;5044020;28;20033;-62
2022/01/10 02:32:21;;;;;;;13.15;7.60;;;1.10;99.90;;;;;;5044566;28;20594;-62
2022/01/10 02:34:46;;;;;;;12.57;8.13;;;1.10;99.90;;;;;;5044412;28;20388;-62
2022/01/10 02:37:37;;;;;;;18.15;7.88;;;1.00;99.90;;;;;;5043030;28;20552;-62
2022/01/10 02:40:06;;;;;;;19.95;9.30;;;1.00;99.90;;;;;;5044298;28;20045;-61
2022/01/10 02:42:33;;;;;;;16.73;9.10;;;0.90;99.90;;;;;;5042598;28;20059;-62
2022/01/10 02:44:58;;;;;;;32.90;10.27;;;0.90;99.90;;;;;;5045791;28;20511;-62
2022/01/10 02:47:27;;;;;;;24.13;11.27;;;0.80;99.90;;;;;;5044439;28;20040;-61
2022/01/10 02:49:53;;;;;;;63.83;13.57;;;0.70;99.90;;;;;;5044058;28;20577;-61
2022/01/10 02:52:18;;;;;;;40.60;13.85;;;0.70;99.90;;;;;;5044459;28;20035;-62
2022/01/10 02:54:44;;;;;;;26.00;11.77;;;0.70;99.90;;;;;;5044877;28;20116;-62
2022/01/10 03:00:31;;;;;;;31.92;14.45;;;0.70;99.90;;;;;;5044692;28;20036;-62
2022/01/10 03:02:58;;;;;;;30.83;14.20;;;0.70;99.90;;;;;;5044148;28;20025;-62
2022/01/10 03:05:25;;;;;;;31.08;13.65;;;0.70;99.90;;;;;;5045932;28;20506;-61
2022/01/10 03:07:54;;;;;;;35.03;14.65;;;0.70;99.90;;;;;;5046519;28;20163;-62
2022/01/10 03:10:20;;;;;;;35.40;13.90;;;0.70;99.90;;;;;;5047808;28;20036;-62
2022/01/10 03:12:46;;;;;;;31.38;14.18;;;0.70;99.90;;;;;;5044897;28;20033;-62
2022/01/10 03:15:12;;;;;;;31.70;13.73;;;0.80;99.90;;;;;;5048321;28;20032;-62
2022/01/10 03:17:39;;;;;;;27.17;13.07;;;0.80;99.90;;;;;;5044236;28;20397;-62
2022/01/10 03:20:06;;;;;;;29.23;13.75;;;0.80;99.90;;;;;;5047800;28;20047;-62
2022/01/10 03:22:32;;;;;;;29.60;13.82;;;0.80;99.90;;;;;;5046652;28;20021;-62
2022/01/10 03:24:59;;;;;;;30.90;14.85;;;0.80;99.90;;;;;;5047743;28;20388;-62
2022/01/10 03:27:24;;;;;;;25.83;12.98;;;0.80;99.90;;;;;;5047636;28;20411;-61
2022/01/10 03:29:51;;;;;;;31.15;14.77;;;0.80;99.90;;;;;;5047349;28;20025;-62
2022/01/10 03:32:16;;;;;;;31.98;15.43;;;0.80;99.90;;;;;;5045255;28;20074;-62
2022/01/10 03:34:42;;;;;;;31.65;15.10;;;0.90;99.90;;;;;;5046720;28;20033;-62
2022/01/10 03:37:09;;;;;;;32.47;14.70;;;0.90;99.90;;;;;;5046559;28;20032;-62
2022/01/10 03:39:35;;;;;;;32.45;15.25;;;0.90;99.90;;;;;;5047527;28;20031;-62
2022/01/10 03:42:01;;;;;;;24.13;14.02;;;0.90;99.90;;;;;;5047271;28;20756;-62
2022/01/10 03:44:27;;;;;;;25.75;13.75;;;1.00;99.90;;;;;;5046595;28;20056;-62
2022/01/10 03:46:53;;;;;;;26.67;12.65;;;1.00;99.90;;;;;;5047333;28;20068;-62
2022/01/10 03:49:19;;;;;;;21.42;12.55;;;1.00;99.90;;;;;;5046072;28;20529;-62
2022/01/10 03:51:45;;;;;;;25.30;14.43;;;1.00;99.90;;;;;;5046417;28;20427;-62
2022/01/10 03:54:10;;;;;;;25.67;11.77;;;1.00;99.90;;;;;;5048842;28;20021;-62
2022/01/10 03:56:36;;;;;;;27.77;12.98;;;1.00;99.90;;;;;;5046959;28;20025;-62
2022/01/10 03:59:03;;;;;;;28.70;13.60;;;1.10;99.90;;;;;;5046926;28;20066;-62
2022/01/10 04:01:30;;;;;;;28.42;12.60;;;1.10;99.90;;;;;;5046719;28;20025;-61
2022/01/10 04:03:56;;;;;;;28.05;14.60;;;1.10;99.90;;;;;;5046330;28;20112;-61
2022/01/10 04:06:22;;;;;;;35.60;15.80;;;1.10;99.90;;;;;;5046938;28;20056;-63
2022/01/10 04:08:48;;;;;;;24.67;15.35;;;1.10;99.90;;;;;;5047424;28;20048;-61
2022/01/10 04:11:13;;;;;;;23.10;15.10;;;1.10;99.90;;;;;;5046695;28;20075;-61
2022/01/10 04:13:40;;;;;;;23.05;14.30;;;1.10;99.90;;;;;;5047507;28;20025;-62
2022/01/10 04:16:06;;;;;;;26.83;13.75;;;1.20;99.90;;;;;;5047250;28;20116;-62
2022/01/10 04:18:32;;;;;;;19.98;12.15;;;1.10;99.90;;;;;;5044154;28;20103;-62
2022/01/10 04:20:58;;;;;;;22.13;14.15;;;1.10;99.90;;;;;;5047425;28;20071;-62
2022/01/10 04:23:24;;;;;;;20.90;13.18;;;1.10;99.90;;;;;;5046352;28;20542;-62
2022/01/10 04:25:50;;;;;;;21.60;12.63;;;1.10;99.90;;;;;;5048068;28;20037;-61
2022/01/10 04:28:15;;;;;;;23.58;12.70;;;1.20;99.90;;;;;;5046912;28;20032;-62
2022/01/10 04:30:41;;;;;;;26.42;14.10;;;1.20;99.90;;;;;;5046545;28;20087;-62
2022/01/10 04:33:07;;;;;;;28.02;12.52;;;1.20;99.90;;;;;;5047158;28;20021;-61
2022/01/10 04:35:33;;;;;;;27.08;12.40;;;1.20;99.90;;;;;;5046184;28;20032;-61
2022/01/10 04:37:59;;;;;;;24.60;13.52;;;1.20;99.90;;;;;;5047256;28;20040;-62
2022/01/10 04:40:25;;;;;;;30.23;13.68;;;1.20;99.90;;;;;;5044946;28;20055;-62
2022/01/10 04:42:51;;;;;;;23.33;12.25;;;1.20;99.90;;;;;;5044700;28;20152;-62
2022/01/10 04:45:17;;;;;;;30.23;12.77;;;1.20;99.90;;;;;;5044581;28;20047;-61
2022/01/10 04:47:43;;;;;;;20.17;11.60;;;1.20;99.90;;;;;;5044800;28;20107;-62
2022/01/10 04:52:38;;;;;;;16.55;11.40;;;1.20;99.90;;;;;;5045218;28;20018;-61
2022/01/10 04:55:04;;;;;;;29.17;13.23;;;1.20;99.90;;;;;;5046223;28;20028;-62
2022/01/10 04:57:30;;;;;;;27.30;11.95;;;1.20;99.90;;;;;;5043302;28;20025;-62
2022/01/10 04:59:56;;;;;;;19.55;12.20;;;1.20;99.90;;;;;;5045229;28;20032;-62
2022/01/10 05:02:22;;;;;;;28.02;12.38;;;1.20;99.90;;;;;;5044878;28;20040;-62
2022/01/10 05:04:48;;;;;;;35.97;12.25;;;1.10;99.90;;;;;;5044130;28;20029;-62
2022/01/10 05:07:14;;;;;;;20.33;11.85;;;1.10;99.90;;;;;;5046266;28;20025;-61
2022/01/10 05:09:40;;;;;;;27.77;12.35;;;1.00;99.90;;;;;;5044185;28;20024;-62
2022/01/10 05:12:06;;;;;;;29.80;12.73;;;1.00;99.90;;;;;;5047699;28;20384;-61
2022/01/10 05:14:33;;;;;;;25.90;13.88;;;0.90;99.90;;;;;;5046334;28;20049;-62
2022/01/10 05:16:58;;;;;;;25.05;13.05;;;0.90;99.90;;;;;;5047077;28;20496;-62
2022/01/10 05:19:24;;;;;;;22.90;11.55;;;0.80;99.90;;;;;;5044463;28;20082;-62
2022/01/10 05:21:50;;;;;;;19.70;12.95;;;0.80;99.90;;;;;;5045105;28;20147;-62
2022/01/10 05:24:15;;;;;;;35.67;14.07;;;0.70;99.90;;;;;;5047226;28;20387;-63
2022/01/10 05:26:41;;;;;;;28.85;12.68;;;0.80;99.90;;;;;;5038808;28;20033;-64
2022/01/10 05:29:06;;;;;;;48.50;22.55;;;0.80;99.90;;;;;;5045586;28;20033;-64
2022/01/10 05:31:35;;;;;;;30.85;16.38;;;0.70;99.90;;;;;;5045091;28;20056;-64
2022/01/10 05:34:02;;;;;;;44.83;18.23;;;0.70;99.90;;;;;;5045463;28;20033;-61
2022/01/10 05:36:28;;;;;;;38.42;18.00;;;0.70;99.90;;;;;;5045172;28;20044;-62
2022/01/10 05:38:54;;;;;;;37.95;17.17;;;0.70;99.90;;;;;;5045829;28;20044;-61
2022/01/10 05:41:22;;;;;;;53.53;18.48;;;0.70;99.90;;;;;;5046031;28;20028;-62
2022/01/10 05:43:47;;;;;;;44.75;17.90;;;0.70;99.90;;;;;;5044019;28;20696;-62
2022/01/10 05:46:16;;;;;;;33.72;15.93;;;0.70;99.90;;;;;;5046030;28;20028;-61
2022/01/10 05:48:46;;;;;;;39.72;16.60;;;0.70;99.90;;;;;;5044793;28;20044;-62
2022/01/10 05:51:15;;;;;;;52.63;16.23;;;0.70;99.90;;;;;;5061652;28;20048;-64
2022/01/10 05:53:42;;;;;;;43.60;16.42;;;0.70;99.90;;;;;;5045438;28;20060;-64
2022/01/10 05:56:08;;;;;;;30.10;16.00;;;0.80;99.90;;;;;;5043106;28;20036;-65
2022/01/10 05:58:33;;;;;;;31.48;15.18;;;0.80;99.90;;;;;;5044975;28;20030;-65
2022/01/10 06:00:59;;;;;;;33.80;15.00;;;0.90;99.90;;;;;;5043941;28;20029;-65
2022/01/10 06:03:25;;;;;;;37.10;15.35;;;0.90;99.90;;;;;;5042455;28;20061;-65
2022/01/10 06:05:51;;;;;;;38.20;17.48;;;0.90;99.90;;;;;;5043801;28;20416;-64
2022/01/10 06:08:16;;;;;;;37.28;17.98;;;1.00;99.90;;;;;;5046248;28;20028;-64
2022/01/10 06:10:42;;;;;;;37.97;16.42;;;1.00;99.90;;;;;;5042654;28;20029;-65
2022/01/10 06:13:08;;;;;;;42.63;16.77;;;1.00;99.90;;;;;;5044816;28;20055;-64
2022/01/10 06:15:33;;;;;;;44.42;20.38;;;1.10;99.90;;;;;;5043663;28;20154;-65
2022/01/10 06:17:59;;;;;;;56.47;20.02;;;1.10;99.90;;;;;;5044473;28;20383;-65
2022/01/10 06:20:25;;;;;;;51.33;22.45;;;1.10;99.90;;;;;;5045146;28;20021;-65
2022/01/10 06:22:51;;;;;;;66.00;25.95;;;1.20;99.90;;;;;;5043128;28;20728;-65
2022/01/10 06:25:20;;;;;;;64.35;26.05;;;1.20;99.90;;;;;;5046898;28;20029;-64
2022/01/10 06:27:46;;;;;;;46.42;20.67;;;1.20;99.90;;;;;;5043408;28;20052;-65
2022/01/10 06:30:24;;;;;;;43.88;18.77;;;1.20;99.90;;;;;;5043759;28;20786;-65
2022/01/10 06:32:50;;;;;;;25.85;15.77;;;1.30;99.90;;;;;;5045043;28;20120;-64
2022/01/10 06:35:16;;;;;;;36.20;15.50;;;1.30;99.90;;;;;;5043338;28;20171;-64
2022/01/10 06:37:41;;;;;;;45.67;14.80;;;1.30;99.90;;;;;;5045063;28;20071;-65
2022/01/10 06:40:08;;;;;;;43.53;15.88;;;1.30;99.90;;;;;;5043757;28;20036;-65
2022/01/10 06:42:34;;;;;;;24.90;15.02;;;1.30;99.90;;;;;;5042980;28;20127;-64
2022/01/10 06:45:00;;;;;;;26.17;14.98;;;1.30;99.90;;;;;;5045117;28;20196;-64
2022/01/10 06:47:25;;;;;;;33.53;14.23;;;1.30;99.90;;;;;;5043317;28;20115;-64
2022/01/10 06:49:51;;;;;;;35.70;16.00;;;1.30;99.90;;;;;;5042620;28;20116;-64
2022/01/10 06:52:17;;;;;;;34.40;15.02;;;1.30;99.90;;;;;;5043637;28;20104;-64
2022/01/10 06:54:43;;;;;;;39.20;15.32;;;1.40;99.90;;;;;;5043315;28;20021;-64
2022/01/10 06:57:09;;;;;;;37.92;16.10;;;1.40;99.90;;;;;;5043625;28;20450;-64
2022/01/10 06:59:35;;;;;;;36.75;15.35;;;1.40;99.90;;;;;;5041599;28;20647;-64
2022/01/10 07:02:01;;;;;;;32.95;15.63;;;1.40;99.90;;;;;;5043617;28;20388;-64
2022/01/10 07:04:27;;;;;;;29.95;13.55;;;1.40;99.90;;;;;;5040907;28;20052;-64
2022/01/10 07:06:54;;;;;;;27.92;14.27;;;1.40;99.90;;;;;;5044689;28;20029;-64
2022/01/10 07:09:20;;;;;;;45.25;13.20;;;1.40;99.90;;;;;;5044761;28;20045;-64
2022/01/10 07:11:46;;;;;;;33.05;15.25;;;1.50;99.90;;;;;;5042445;28;20423;-64
2022/01/10 07:14:14;;;;;;;40.47;15.57;;;1.40;99.90;;;;;;5043817;28;20036;-65
2022/01/10 07:16:41;;;;;;;38.30;14.82;;;1.50;99.90;;;;;;5044539;28;20033;-65
2022/01/10 07:19:07;;;;;;;34.97;14.82;;;1.50;99.90;;;;;;5044605;28;20104;-64
2022/01/10 07:21:33;;;;;;;24.30;13.00;;;1.50;99.90;;;;;;5042250;28;20444;-64
2022/01/10 07:23:59;;;;;;;31.83;14.40;;;1.50;99.90;;;;;;5045167;28;20076;-64
2022/01/10 07:26:25;;;;;;;30.30;14.73;;;1.50;99.90;;;;;;5042888;28;20044;-64
2022/01/10 07:28:51;;;;;;;36.50;14.82;;;1.50;99.90;;;;;;5044972;28;20041;-65
2022/01/10 07:31:16;;;;;;;34.58;15.57;;;1.50;99.90;;;;;;5042836;28;20747;-65
2022/01/10 07:33:42;;;;;;;39.47;16.75;;;1.60;99.90;;;;;;5045023;28;20040;-64
2022/01/10 07:37:01;;;;;;;43.15;16.98;;;1.60;99.90;;;;;;5042290;28;20086;-65
2022/01/10 07:39:27;;;;;;;28.40;16.08;;;1.60;99.90;;;;;;5043294;28;20044;-65
2022/01/10 07:41:53;;;;;;;42.45;17.05;;;1.60;99.90;;;;;;5044689;28;20106;-64
2022/01/10 07:44:18;;;;;;;41.63;17.42;;;1.60;99.90;;;;;;5042291;28;20029;-64
2022/01/10 07:46:44;;;;;;;34.20;16.17;;;1.60;99.90;;;;;;5043801;28;20031;-64
2022/01/10 07:49:10;;;;;;;34.67;14.80;;;1.60;99.90;;;;;;5041582;28;20355;-64
2022/01/10 07:51:35;;;;;;;32.28;16.05;;;1.60;99.90;;;;;;5043042;28;20032;-64
2022/01/10 07:54:01;;;;;;;37.03;16.33;;;1.60;99.90;;;;;;5046643;28;20025;-64
2022/01/10 07:56:27;;;;;;;28.67;15.13;;;1.60;99.90;;;;;;5046511;28;20037;-64
2022/01/10 07:59:01;;;;;;;37.53;16.08;;;1.70;99.90;;;;;;5048231;28;20136;-64
2022/01/10 08:01:27;;;;;;;35.00;14.90;;;1.60;99.90;;;;;;5044756;28;20033;-64
2022/01/10 08:04:17;;;;;;;30.60;14.88;;;1.70;99.90;;;;;;5011241;28;20037;-65
2022/01/10 08:06:43;;;;;;;38.28;16.02;;;1.70;99.90;;;;;;5043848;28;20447;-64
2022/01/10 08:09:09;;;;;;;29.85;15.20;;;1.80;99.90;;;;;;5048311;28;20121;-64
2022/01/10 08:11:34;;;;;;;35.80;15.18;;;1.80;99.90;;;;;;5046719;28;20021;-65
2022/01/10 08:14:02;;;;;;;32.83;15.48;;;1.80;99.90;;;;;;5047689;28;20036;-64
2022/01/10 08:16:27;;;;;;;28.33;15.68;;;1.80;99.90;;;;;;5043727;28;20483;-64
2022/01/10 08:18:53;;;;;;;35.50;16.33;;;1.90;99.90;;;;;;5047641;28;20108;-64
2022/01/10 08:21:22;;;;;;;26.50;14.73;;;1.90;99.90;;;;;;5045554;28;20119;-64
2022/01/10 08:23:48;;;;;;;35.47;16.35;;;2.00;99.90;;;;;;5046063;28;20029;-64
2022/01/10 08:26:14;;;;;;;32.13;15.88;;;2.10;99.90;;;;;;5046928;28;20026;-65
2022/01/10 08:28:40;;;;;;;31.50;15.32;;;2.10;99.90;;;;;;5044505;28;20025;-64
2022/01/10 08:31:06;;;;;;;33.13;16.50;;;2.20;99.90;;;;;;5044488;28;20549;-65
2022/01/10 08:33:32;;;;;;;34.10;17.23;;;2.20;99.90;;;;;;5042663;28;20021;-64
2022/01/10 08:35:58;;;;;;;32.47;16.48;;;2.30;99.90;;;;;;5046825;28;20079;-65
2022/01/10 08:38:24;;;;;;;38.08;18.67;;;2.30;99.90;;;;;;5044942;28;20061;-64
2022/01/10 08:40:50;;;;;;;33.15;17.05;;;2.40;99.90;;;;;;5040883;28;20057;-65
2022/01/10 08:43:16;;;;;;;30.15;19.20;;;2.40;99.90;;;;;;5044903;28;20029;-64
2022/01/10 08:45:53;;;;;;;36.67;18.45;;;2.50;99.90;;;;;;5021751;28;20041;-64
2022/01/10 08:48:19;;;;;;;35.20;16.75;;;2.60;99.90;;;;;;5039120;28;20017;-65
2022/01/10 08:50:53;;;;;;;29.55;17.10;;;2.70;99.90;;;;;;5042529;28;20079;-65
2022/01/10 08:53:19;;;;;;;34.17;16.38;;;2.70;99.90;;;;;;5042945;28;20044;-65
2022/01/10 08:55:54;;;;;;;30.40;15.98;;;2.90;99.90;;;;;;5043723;28;20030;-65
2022/01/10 08:58:21;;;;;;;32.22;16.90;;;3.00;99.90;;;;;;5044096;28;20037;-64
2022/01/10 09:00:53;;;;;;;35.17;17.75;;;3.10;99.90;;;;;;5044998;28;20029;-64
2022/01/10 09:03:24;;;;;;;40.00;17.67;;;3.20;99.90;;;;;;5042812;28;20029;-64
2022/01/10 09:05:56;;;;;;;32.70;17.20;;;3.20;99.90;;;;;;5046166;28;20033;-64
2022/01/10 09:08:29;;;;;;;30.63;17.08;;;3.20;99.90;;;;;;5044769;28;20434;-64
2022/01/10 09:10:55;;;;;;;37.13;19.25;;;3.30;99.90;;;;;;5043125;28;20451;-65
2022/01/10 09:13:21;;;;;;;37.55;17.70;;;3.30;99.90;;;;;;5044801;28;20061;-64
2022/01/10 09:15:56;;;;;;;40.20;18.50;;;3.30;99.90;;;;;;5048286;28;20061;-64
2022/01/10 09:18:22;;;;;;;51.28;18.95;;;3.30;99.90;;;;;;5045599;28;20400;-66
2022/01/10 09:20:57;;;;;;;35.38;16.88;;;3.30;99.90;;;;;;5047578;28;20025;-65
2022/01/10 09:23:23;;;;;;;37.20;20.23;;;3.30;99.90;;;;;;5045057;28;20024;-64
2022/01/10 09:25:49;;;;;;;40.67;19.25;;;3.30;99.90;;;;;;5046507;28;20388;-65
2022/01/10 09:28:16;;;;;;;27.55;16.65;;;3.30;99.90;;;;;;5046205;28;20112;-64
2022/01/10 09:30:42;;;;;;;27.38;16.25;;;3.20;99.90;;;;;;5044095;28;20037;-65
2022/01/10 09:33:08;;;;;;;35.45;16.35;;;3.20;99.90;;;;;;5043937;28;20018;-64
2022/01/10 09:35:33;;;;;;;24.02;15.82;;;3.30;99.90;;;;;;5044849;28;20059;-65
2022/01/10 09:37:59;;;;;;;23.30;15.45;;;3.30;99.90;;;;;;5046340;28;20041;-64
2022/01/10 09:40:25;;;;;;;23.88;15.32;;;3.50;99.90;;;;;;5041953;28;20025;-65
2022/01/10 09:42:51;;;;;;;26.38;15.88;;;3.60;99.90;;;;;;5011684;28;20037;-64
2022/01/10 09:45:17;;;;;;;19.70;14.55;;;3.60;99.90;;;;;;5043852;28;20040;-65
2022/01/10 09:47:43;;;;;;;19.15;13.32;;;3.70;99.90;;;;;;5040253;28;20033;-65
2022/01/10 09:50:10;;;;;;;23.98;15.95;;;3.80;99.90;;;;;;5041540;28;20032;-65
2022/01/10 09:52:38;;;;;;;25.25;14.68;;;3.80;99.90;;;;;;5043598;28;20021;-64
2022/01/10 09:55:05;;;;;;;22.42;15.02;;;3.80;99.90;;;;;;5044944;28;20499;-65
2022/01/10 09:57:31;;;;;;;26.83;15.10;;;3.90;99.90;;;;;;5042924;28;20028;-65
2022/01/10 09:59:56;;;;;;;20.55;13.55;;;4.00;99.90;;;;;;5045618;28;20029;-65
2022/01/10 10:02:36;;;;;;;22.30;10.77;;;4.30;99.90;;;;;;5043025;28;20021;-65
2022/01/10 10:05:05;;;;;;;20.80;12.65;;;5.00;99.90;;;;;;5058634;28;20522;-65
2022/01/10 10:07:31;;;;;;;14.85;11.45;;;5.60;99.90;;;;;;5046006;28;20116;-65
2022/01/10 10:10:01;;;;;;;17.48;13.13;;;5.80;99.90;;;;;;5041490;28;20185;-65
2022/01/10 10:12:29;;;;;;;17.42;10.70;;;6.50;99.90;;;;;;5061230;28;20390;-66
2022/01/10 10:14:56;;;;;;;12.75;10.45;;;7.40;99.90;;;;;;5042774;28;20418;-65
2022/01/10 10:17:22;;;;;;;11.50;10.10;;;8.50;99.90;;;;;;5044753;28;20108;-65
2022/01/10 10:19:49;;;;;;;11.88;10.65;;;9.30;99.90;;;;;;5043695;28;20066;-65
2022/01/10 10:22:15;;;;;;;14.60;11.23;;;9.40;99.90;;;;;;5042769;28;20017;-65
2022/01/10 10:24:41;;;;;;;12.32;10.95;;;9.50;99.90;;;;;;5043519;28;20195;-65
2022/01/10 10:27:08;;;;;;;14.55;11.05;;;9.30;99.90;;;;;;5045162;28;20471;-65
2022/01/10 10:29:38;;;;;;;12.73;11.20;;;9.10;99.90;;;;;;5043276;28;20037;-65
2022/01/10 10:32:04;;;;;;;15.68;11.30;;;8.60;99.90;;;;;;5044247;28;20048;-65
2022/01/10 10:34:33;;;;;;;13.45;12.05;;;8.30;99.90;;;;;;5041195;28;20033;-65
2022/01/10 10:37:17;;;;;;;16.92;11.43;;;8.00;99.90;;;;;;5042660;28;20484;-65
2022/01/10 10:39:44;;;;;;;14.60;10.95;;;7.50;99.90;;;;;;5041714;28;20076;-65
2022/01/10 10:42:12;;;;;;;15.15;11.82;;;7.20;99.90;;;;;;5042019;28;20485;-65
2022/01/10 10:44:39;;;;;;;13.43;10.55;;;6.90;99.90;;;;;;5042238;28;20388;-64
2022/01/10 10:47:06;;;;;;;15.77;11.68;;;6.70;99.90;;;;;;5045512;28;20035;-65
2022/01/10 10:49:37;;;;;;;12.15;9.88;;;6.70;99.90;;;;;;5043052;28;20025;-65
2022/01/10 10:52:07;;;;;;;12.75;10.55;;;6.50;99.90;;;;;;5043784;28;20021;-65
2022/01/10 10:54:34;;;;;;;18.63;12.75;;;6.30;99.90;;;;;;5043949;28;20104;-65
2022/01/10 10:57:01;;;;;;;13.95;11.05;;;6.20;99.90;;;;;;5043509;28;20032;-64
2022/01/10 10:59:30;;;;;;;15.85;11.95;;;6.20;99.90;;;;;;5043035;28;20078;-65
2022/01/10 11:01:57;;;;;;;15.50;12.52;;;6.10;99.90;;;;;;5042691;28;20031;-65
2022/01/10 11:04:24;;;;;;;13.23;10.75;;;6.20;99.90;;;;;;5042000;28;20037;-65
2022/01/10 11:06:51;;;;;;;12.80;11.20;;;6.20;99.90;;;;;;5044067;28;20029;-65
2022/01/10 11:09:18;;;;;;;17.65;12.27;;;6.30;99.90;;;;;;5041664;28;20036;-65
2022/01/10 11:11:45;;;;;;;17.70;12.52;;;6.30;99.90;;;;;;5042983;28;20033;-65
2022/01/10 11:14:14;;;;;;;17.17;11.77;;;6.30;99.90;;;;;;5041184;28;20131;-65
2022/01/10 11:16:42;;;;;;;16.63;11.93;;;6.40;99.90;;;;;;5042093;28;20033;-64
2022/01/10 11:19:22;;;;;;;23.60;15.55;;;6.30;99.90;;;;;;5058312;28;20025;-65
2022/01/10 11:22:01;;;;;;;12.20;10.98;;;6.30;99.90;;;;;;5041411;28;20043;-65
2022/01/10 11:24:47;;;;;;;12.48;11.15;;;6.10;99.90;;;;;;5042747;28;20460;-65
2022/01/10 11:27:34;;;;;;;15.05;11.63;;;5.90;99.90;;;;;;5045829;28;20056;-65
2022/01/10 11:30:22;;;;;;;15.00;10.20;;;5.90;99.90;;;;;;5046183;28;20493;-65
2022/01/10 11:33:02;;;;;;;16.40;14.18;;;5.80;99.90;;;;;;5045468;28;20103;-65
2022/01/10 11:35:46;;;;;;;14.10;12.45;;;5.80;99.90;;;;;;5060459;28;20084;-65
2022/01/10 11:38:45;;;;;;;12.02;10.77;;;5.90;99.90;;;;;;5044630;28;20602;-65
2022/01/10 11:41:16;;;;;;;13.32;11.43;;;5.90;99.90;;;;;;5044792;28;20044;-65
2022/01/10 11:43:47;;;;;;;13.63;10.43;;;5.90;99.90;;;;;;5046218;28;20029;-65
2022/01/10 11:46:28;;;;;;;13.07;11.10;;;5.90;99.90;;;;;;5046637;28;20242;-65
2022/01/10 11:48:55;;;;;;;15.70;11.32;;;5.80;99.90;;;;;;5044380;28;20051;-65
2022/01/10 11:51:37;;;;;;;16.40;11.98;;;5.70;99.90;;;;;;5046775;28;20033;-65
2022/01/10 11:54:27;;;;;;;14.43;10.65;;;5.70;99.90;;;;;;5044770;28;20044;-65
2022/01/10 11:56:53;;;;;;;14.60;11.68;;;5.70;99.90;;;;;;5046054;28;20045;-65
2022/01/10 11:59:28;;;;;;;16.27;11.60;;;5.70;99.90;;;;;;5043001;28;20041;-65
2022/01/10 12:01:57;;;;;;;16.48;12.43;;;5.70;99.90;;;;;;5045366;28;20116;-65
2022/01/10 12:04:24;;;;;;;14.95;11.57;;;5.80;99.90;;;;;;5045703;28;20103;-64
2022/01/10 12:06:51;;;;;;;20.20;12.25;;;5.80;99.90;;;;;;5047125;28;20025;-65
2022/01/10 12:09:17;;;;;;;17.42;11.50;;;5.90;99.90;;;;;;5044020;28;20025;-65
2022/01/10 12:11:45;;;;;;;14.10;11.20;;;5.80;99.90;;;;;;5044776;28;20033;-65
2022/01/10 12:14:11;;;;;;;13.60;11.43;;;5.70;99.90;;;;;;5044695;28;20029;-65
2022/01/10 12:16:47;;;;;;;13.15;11.40;;;5.70;99.90;;;;;;5043361;28;20051;-65
2022/01/10 12:19:12;;;;;;;15.10;10.82;;;5.70;99.90;;;;;;5038622;28;20029;-65
2022/01/10 12:21:39;;;;;;;15.63;11.30;;;5.70;99.90;;;;;;5043708;28;20036;-65
2022/01/10 12:24:06;;;;;;;13.48;11.43;;;5.70;99.90;;;;;;5045338;28;20154;-65
2022/01/10 12:26:48;;;;;;;11.85;10.65;;;5.70;99.90;;;;;;5044757;28;20116;-65
2022/01/10 12:29:15;;;;;;;15.23;11.00;;;5.90;99.90;;;;;;5045901;28;20075;-65
2022/01/10 12:31:43;;;;;;;19.02;11.80;;;6.00;99.90;;;;;;5044467;28;20128;-64
2022/01/10 12:34:11;;;;;;;12.75;11.10;;;6.00;99.90;;;;;;5045083;28;20021;-65
2022/01/10 12:36:38;;;;;;;15.15;10.77;;;6.10;99.90;;;;;;5045725;28;20032;-65
2022/01/10 12:39:19;;;;;;;13.65;11.05;;;6.20;99.90;;;;;;5046122;28;20622;-64
2022/01/10 12:41:45;;;;;;;11.38;10.10;;;6.20;99.90;;;;;;5042618;28;20040;-65
2022/01/10 12:44:11;;;;;;;13.23;11.23;;;6.20;99.90;;;;;;5045632;28;20033;-65
2022/01/10 12:46:49;;;;;;;17.25;11.85;;;6.20;99.90;;;;;;5044254;28;20535;-65
2022/01/10 12:49:15;;;;;;;17.77;11.05;;;6.20;99.90;;;;;;5044886;28;20032;-65
2022/01/10 12:51:47;;;;;;;14.20;11.25;;;6.20;99.90;;;;;;5042670;28;20036;-65
2022/01/10 12:54:16;;;;;;;12.60;10.75;;;6.20;99.90;;;;;;5044512;28;20025;-64
2022/01/10 12:56:43;;;;;;;13.48;11.13;;;6.30;99.90;;;;;;5042328;28;20733;-65
2022/01/10 12:59:12;;;;;;;16.25;12.20;;;6.30;99.90;;;;;;5044578;28;20438;-65
2022/01/10 13:01:38;;;;;;;15.65;10.50;;;6.30;99.90;;;;;;5045243;28;20487;-65
2022/01/10 13:04:04;;;;;;;14.90;11.35;;;6.20;99.90;;;;;;5043856;28;20086;-65